sensor_id;sensor_type;location;lat;lon;timestamp;temperature;humidity
24412;DHT22;12544;46.760;15.942;2023-04-08T00:01:37;6.50;99.90
24412;DHT22;12544;46.760;15.942;2023-04-08T00:04:03;6.50;99.90
24412;DHT22;12544;46.760;15.942;2023-04-08T00:06:28;6.50;99.90
24412;DHT22;12544;46.760;15.942;2023-04-08T00:08:54;6.40;99.90
24412;DHT22;12544;46.760;15.942;2023-04-08T00:11:19;6.40;99.90
24412;DHT22;12544;46.760;15.942;2023-04-08T00:13:45;6.30;99.90
24412;DHT22;12544;46.760;15.942;2023-04-08T00:16:10;6.30;99.90
24412;DHT22;12544;46.760;15.942;2023-04-08T00:18:36;6.30;99.90
24412;DHT22;12544;46.760;15.942;2023-04-08T00:21:03;6.40;99.90
24412;DHT22;12544;46.760;15.942;2023-04-08T00:23:28;6.30;99.90
24412;DHT22;12544;46.760;15.942;2023-04-08T00:25:56;6.30;99.90
24412;DHT22;12544;46.760;15.942;2023-04-08T00:28:21;6.40;99.90
24412;DHT22;12544;46.760;15.942;2023-04-08T00:30:47;6.30;99.90
24412;DHT22;12544;46.760;15.942;2023-04-08T00:33:12;6.30;99.90
24412;DHT22;12544;46.760;15.942;2023-04-08T00:35:38;6.30;99.90
24412;DHT22;12544;46.760;15.942;2023-04-08T00:38:03;6.30;99.90
24412;DHT22;12544;46.760;15.942;2023-04-08T00:40:32;6.30;99.90
24412;DHT22;12544;46.760;15.942;2023-04-08T00:42:58;6.30;99.90
24412;DHT22;12544;46.760;15.942;2023-04-08T00:45:24;6.20;99.90
24412;DHT22;12544;46.760;15.942;2023-04-08T00:47:49;6.30;99.90
24412;DHT22;12544;46.760;15.942;2023-04-08T00:50:17;6.30;99.90
24412;DHT22;12544;46.760;15.942;2023-04-08T00:52:42;6.20;99.90
24412;DHT22;12544;46.760;15.942;2023-04-08T00:55:08;6.20;99.90
24412;DHT22;12544;46.760;15.942;2023-04-08T00:57:33;6.20;99.90
24412;DHT22;12544;46.760;15.942;2023-04-08T00:59:59;6.20;99.90
24412;DHT22;12544;46.760;15.942;2023-04-08T01:05:06;6.20;99.90
24412;DHT22;12544;46.760;15.942;2023-04-08T01:07:33;6.20;99.90
24412;DHT22;12544;46.760;15.942;2023-04-08T01:10:01;6.10;99.90
24412;DHT22;12544;46.760;15.942;2023-04-08T01:12:29;6.10;99.90
24412;DHT22;12544;46.760;15.942;2023-04-08T01:15:00;6.00;99.90
24412;DHT22;12544;46.760;15.942;2023-04-08T01:17:27;6.00;99.90
24412;DHT22;12544;46.760;15.942;2023-04-08T01:19:53;6.10;99.90
24412;DHT22;12544;46.760;15.942;2023-04-08T01:25:02;6.10;99.90
24412;DHT22;12544;46.760;15.942;2023-04-08T01:27:29;6.20;99.90
24412;DHT22;12544;46.760;15.942;2023-04-08T01:29:56;6.10;99.90
24412;DHT22;12544;46.760;15.942;2023-04-08T01:32:22;6.10;99.90
24412;DHT22;12544;46.760;15.942;2023-04-08T01:34:49;5.90;99.90
24412;DHT22;12544;46.760;15.942;2023-04-08T01:37:15;6.00;99.90
24412;DHT22;12544;46.760;15.942;2023-04-08T01:39:41;6.00;99.90
24412;DHT22;12544;46.760;15.942;2023-04-08T01:42:08;6.00;99.90
24412;DHT22;12544;46.760;15.942;2023-04-08T01:44:34;6.00;99.90
24412;DHT22;12544;46.760;15.942;2023-04-08T01:47:00;5.90;99.90
24412;DHT22;12544;46.760;15.942;2023-04-08T01:49:26;5.90;99.90
24412;DHT22;12544;46.760;15.942;2023-04-08T01:51:53;6.00;99.90
24412;DHT22;12544;46.760;15.942;2023-04-08T01:54:27;6.00;99.90
24412;DHT22;12544;46.760;15.942;2023-04-08T01:56:52;6.00;99.90
24412;DHT22;12544;46.760;15.942;2023-04-08T01:59:18;6.00;99.90
24412;DHT22;12544;46.760;15.942;2023-04-08T02:01:45;6.00;99.90
24412;DHT22;12544;46.760;15.942;2023-04-08T02:04:12;5.90;99.90
24412;DHT22;12544;46.760;15.942;2023-04-08T02:06:37;5.90;99.90
24412;DHT22;12544;46.760;15.942;2023-04-08T02:09:03;6.00;99.90
24412;DHT22;12544;46.760;15.942;2023-04-08T02:11:32;5.90;99.90
24412;DHT22;12544;46.760;15.942;2023-04-08T02:13:57;5.90;99.90
24412;DHT22;12544;46.760;15.942;2023-04-08T02:18:55;5.90;99.90
24412;DHT22;12544;46.760;15.942;2023-04-08T02:21:21;5.90;99.90
24412;DHT22;12544;46.760;15.942;2023-04-08T02:23:48;5.90;99.90
24412;DHT22;12544;46.760;15.942;2023-04-08T02:26:17;5.90;99.90
24412;DHT22;12544;46.760;15.942;2023-04-08T02:28:43;5.80;99.90
24412;DHT22;12544;46.760;15.942;2023-04-08T02:31:11;5.80;99.90
24412;DHT22;12544;46.760;15.942;2023-04-08T02:33:40;5.90;99.90
24412;DHT22;12544;46.760;15.942;2023-04-08T02:36:07;5.80;99.90
24412;DHT22;12544;46.760;15.942;2023-04-08T02:38:32;5.80;99.90
24412;DHT22;12544;46.760;15.942;2023-04-08T02:40:58;5.90;99.90
24412;DHT22;12544;46.760;15.942;2023-04-08T02:43:24;5.90;99.90
24412;DHT22;12544;46.760;15.942;2023-04-08T02:45:58;5.80;99.90
24412;DHT22;12544;46.760;15.942;2023-04-08T02:48:28;5.80;99.90
24412;DHT22;12544;46.760;15.942;2023-04-08T02:50:54;5.80;99.90
24412;DHT22;12544;46.760;15.942;2023-04-08T02:53:20;5.90;99.90
24412;DHT22;12544;46.760;15.942;2023-04-08T02:55:46;5.90;99.90
24412;DHT22;12544;46.760;15.942;2023-04-08T02:58:12;6.00;99.90
24412;DHT22;12544;46.760;15.942;2023-04-08T03:00:37;6.00;99.90
24412;DHT22;12544;46.760;15.942;2023-04-08T03:03:04;6.10;99.90
24412;DHT22;12544;46.760;15.942;2023-04-08T03:05:30;6.10;99.90
24412;DHT22;12544;46.760;15.942;2023-04-08T03:07:56;6.20;99.90
24412;DHT22;12544;46.760;15.942;2023-04-08T03:10:21;6.20;99.90
24412;DHT22;12544;46.760;15.942;2023-04-08T03:12:47;6.20;99.90
24412;DHT22;12544;46.760;15.942;2023-04-08T03:15:12;6.20;99.90
24412;DHT22;12544;46.760;15.942;2023-04-08T03:17:44;6.20;99.90
24412;DHT22;12544;46.760;15.942;2023-04-08T03:20:10;6.20;99.90
24412;DHT22;12544;46.760;15.942;2023-04-08T03:22:35;6.20;99.90
24412;DHT22;12544;46.760;15.942;2023-04-08T03:25:01;6.20;99.90
24412;DHT22;12544;46.760;15.942;2023-04-08T03:27:26;6.20;99.90
24412;DHT22;12544;46.760;15.942;2023-04-08T03:29:54;6.20;99.90
24412;DHT22;12544;46.760;15.942;2023-04-08T03:32:22;6.30;99.90
24412;DHT22;12544;46.760;15.942;2023-04-08T03:34:47;6.30;99.90
24412;DHT22;12544;46.760;15.942;2023-04-08T03:37:18;6.30;99.90
24412;DHT22;12544;46.760;15.942;2023-04-08T03:39:43;6.30;99.90
24412;DHT22;12544;46.760;15.942;2023-04-08T03:42:09;6.40;99.90
24412;DHT22;12544;46.760;15.942;2023-04-08T03:44:34;6.40;99.90
24412;DHT22;12544;46.760;15.942;2023-04-08T03:47:00;6.50;99.90
24412;DHT22;12544;46.760;15.942;2023-04-08T03:49:25;6.50;99.90
24412;DHT22;12544;46.760;15.942;2023-04-08T03:51:51;6.50;99.90
24412;DHT22;12544;46.760;15.942;2023-04-08T03:54:16;6.50;99.90
24412;DHT22;12544;46.760;15.942;2023-04-08T03:56:42;6.50;99.90
24412;DHT22;12544;46.760;15.942;2023-04-08T03:59:07;6.50;99.90
24412;DHT22;12544;46.760;15.942;2023-04-08T04:01:33;6.50;99.90
24412;DHT22;12544;46.760;15.942;2023-04-08T04:04:05;6.50;99.90
24412;DHT22;12544;46.760;15.942;2023-04-08T04:06:31;6.40;99.90
24412;DHT22;12544;46.760;15.942;2023-04-08T04:08:56;6.40;99.90
24412;DHT22;12544;46.760;15.942;2023-04-08T04:11:22;6.40;99.90
24412;DHT22;12544;46.760;15.942;2023-04-08T04:13:48;6.40;99.90
24412;DHT22;12544;46.760;15.942;2023-04-08T04:16:13;6.40;99.90
24412;DHT22;12544;46.760;15.942;2023-04-08T04:18:38;6.40;99.90
24412;DHT22;12544;46.760;15.942;2023-04-08T04:21:04;6.40;99.90
24412;DHT22;12544;46.760;15.942;2023-04-08T04:23:31;6.30;99.90
24412;DHT22;12544;46.760;15.942;2023-04-08T04:25:56;6.40;99.90
24412;DHT22;12544;46.760;15.942;2023-04-08T04:28:22;6.40;99.90
24412;DHT22;12544;46.760;15.942;2023-04-08T04:30:47;6.50;99.90
24412;DHT22;12544;46.760;15.942;2023-04-08T04:33:13;6.40;99.90
24412;DHT22;12544;46.760;15.942;2023-04-08T04:35:38;6.40;99.90
24412;DHT22;12544;46.760;15.942;2023-04-08T04:38:05;6.40;99.90
24412;DHT22;12544;46.760;15.942;2023-04-08T04:40:36;6.40;99.90
24412;DHT22;12544;46.760;15.942;2023-04-08T04:43:01;6.50;99.90
24412;DHT22;12544;46.760;15.942;2023-04-08T04:45:27;6.50;99.90
24412;DHT22;12544;46.760;15.942;2023-04-08T04:47:52;6.60;99.90
24412;DHT22;12544;46.760;15.942;2023-04-08T04:50:18;6.60;99.90
24412;DHT22;12544;46.760;15.942;2023-04-08T04:52:43;6.70;99.90
24412;DHT22;12544;46.760;15.942;2023-04-08T04:55:09;6.70;99.90
24412;DHT22;12544;46.760;15.942;2023-04-08T04:57:35;6.70;99.90
24412;DHT22;12544;46.760;15.942;2023-04-08T05:00:00;6.80;99.90
24412;DHT22;12544;46.760;15.942;2023-04-08T05:02:26;6.90;99.90
24412;DHT22;12544;46.760;15.942;2023-04-08T05:04:56;6.90;99.90
24412;DHT22;12544;46.760;15.942;2023-04-08T05:07:22;6.90;99.90
24412;DHT22;12544;46.760;15.942;2023-04-08T05:09:47;6.90;99.90
24412;DHT22;12544;46.760;15.942;2023-04-08T05:12:13;7.00;99.90
24412;DHT22;12544;46.760;15.942;2023-04-08T05:14:38;7.00;99.90
24412;DHT22;12544;46.760;15.942;2023-04-08T05:17:05;7.00;99.90
24412;DHT22;12544;46.760;15.942;2023-04-08T05:19:31;7.00;99.90
24412;DHT22;12544;46.760;15.942;2023-04-08T05:21:56;6.90;99.90
24412;DHT22;12544;46.760;15.942;2023-04-08T05:24:22;6.90;99.90
24412;DHT22;12544;46.760;15.942;2023-04-08T05:26:50;6.90;99.90
24412;DHT22;12544;46.760;15.942;2023-04-08T05:29:17;6.80;99.90
24412;DHT22;12544;46.760;15.942;2023-04-08T05:31:43;6.80;99.90
24412;DHT22;12544;46.760;15.942;2023-04-08T05:34:09;6.90;99.90
24412;DHT22;12544;46.760;15.942;2023-04-08T05:36:35;6.70;99.90
24412;DHT22;12544;46.760;15.942;2023-04-08T05:39:01;6.70;99.90
24412;DHT22;12544;46.760;15.942;2023-04-08T05:41:26;6.70;99.90
24412;DHT22;12544;46.760;15.942;2023-04-08T05:43:53;6.70;99.90
24412;DHT22;12544;46.760;15.942;2023-04-08T05:46:18;6.80;99.90
24412;DHT22;12544;46.760;15.942;2023-04-08T05:48:44;6.90;99.90
24412;DHT22;12544;46.760;15.942;2023-04-08T05:51:13;6.80;99.90
24412;DHT22;12544;46.760;15.942;2023-04-08T05:53:38;6.90;99.90
24412;DHT22;12544;46.760;15.942;2023-04-08T05:56:04;7.00;99.90
24412;DHT22;12544;46.760;15.942;2023-04-08T05:58:29;7.10;99.90
24412;DHT22;12544;46.760;15.942;2023-04-08T06:00:55;7.10;99.90
24412;DHT22;12544;46.760;15.942;2023-04-08T06:03:21;7.20;99.90
24412;DHT22;12544;46.760;15.942;2023-04-08T06:05:46;7.20;99.90
24412;DHT22;12544;46.760;15.942;2023-04-08T06:08:12;7.20;99.90
24412;DHT22;12544;46.760;15.942;2023-04-08T06:10:37;7.20;99.90
24412;DHT22;12544;46.760;15.942;2023-04-08T06:13:03;7.20;99.90
24412;DHT22;12544;46.760;15.942;2023-04-08T06:15:28;7.20;99.90
24412;DHT22;12544;46.760;15.942;2023-04-08T06:17:54;7.30;99.90
24412;DHT22;12544;46.760;15.942;2023-04-08T06:20:19;7.40;99.90
24412;DHT22;12544;46.760;15.942;2023-04-08T06:22:45;7.40;99.90
24412;DHT22;12544;46.760;15.942;2023-04-08T06:25:10;7.40;99.90
24412;DHT22;12544;46.760;15.942;2023-04-08T06:30:13;7.50;99.90
24412;DHT22;12544;46.760;15.942;2023-04-08T06:32:40;7.50;99.90
24412;DHT22;12544;46.760;15.942;2023-04-08T06:35:06;7.50;99.90
24412;DHT22;12544;46.760;15.942;2023-04-08T06:37:32;7.50;99.90
24412;DHT22;12544;46.760;15.942;2023-04-08T06:39:58;7.50;99.90
24412;DHT22;12544;46.760;15.942;2023-04-08T06:42:24;7.50;99.90
24412;DHT22;12544;46.760;15.942;2023-04-08T06:44:50;7.50;99.90
24412;DHT22;12544;46.760;15.942;2023-04-08T06:47:15;7.40;99.90
24412;DHT22;12544;46.760;15.942;2023-04-08T06:49:41;7.40;99.90
24412;DHT22;12544;46.760;15.942;2023-04-08T06:52:07;7.40;99.90
24412;DHT22;12544;46.760;15.942;2023-04-08T06:54:33;7.40;99.90
24412;DHT22;12544;46.760;15.942;2023-04-08T06:56:58;7.40;99.90
24412;DHT22;12544;46.760;15.942;2023-04-08T06:59:24;7.40;99.90
24412;DHT22;12544;46.760;15.942;2023-04-08T07:01:49;7.40;99.90
24412;DHT22;12544;46.760;15.942;2023-04-08T07:04:15;7.40;99.90
24412;DHT22;12544;46.760;15.942;2023-04-08T07:06:40;7.50;99.90
24412;DHT22;12544;46.760;15.942;2023-04-08T07:09:06;7.50;99.90
24412;DHT22;12544;46.760;15.942;2023-04-08T07:11:32;7.50;99.90
24412;DHT22;12544;46.760;15.942;2023-04-08T07:13:58;7.50;99.90
24412;DHT22;12544;46.760;15.942;2023-04-08T07:16:23;7.50;99.90
24412;DHT22;12544;46.760;15.942;2023-04-08T07:18:49;7.50;99.90
24412;DHT22;12544;46.760;15.942;2023-04-08T07:21:15;7.50;99.90
24412;DHT22;12544;46.760;15.942;2023-04-08T07:23:41;7.50;99.90
24412;DHT22;12544;46.760;15.942;2023-04-08T07:26:06;7.50;99.90
24412;DHT22;12544;46.760;15.942;2023-04-08T07:28:32;7.50;99.90
24412;DHT22;12544;46.760;15.942;2023-04-08T07:31:14;7.50;99.90
24412;DHT22;12544;46.760;15.942;2023-04-08T07:33:40;7.50;99.90
24412;DHT22;12544;46.760;15.942;2023-04-08T07:36:06;7.40;99.90
24412;DHT22;12544;46.760;15.942;2023-04-08T07:38:32;7.40;99.90
24412;DHT22;12544;46.760;15.942;2023-04-08T07:40:58;7.40;99.90
24412;DHT22;12544;46.760;15.942;2023-04-08T07:43:24;7.40;99.90
24412;DHT22;12544;46.760;15.942;2023-04-08T07:45:49;7.40;99.90
24412;DHT22;12544;46.760;15.942;2023-04-08T07:48:15;7.40;99.90
24412;DHT22;12544;46.760;15.942;2023-04-08T07:50:41;7.40;99.90
24412;DHT22;12544;46.760;15.942;2023-04-08T07:53:06;7.40;99.90
24412;DHT22;12544;46.760;15.942;2023-04-08T07:55:33;7.40;99.90
24412;DHT22;12544;46.760;15.942;2023-04-08T07:57:58;7.40;99.90
24412;DHT22;12544;46.760;15.942;2023-04-08T08:00:24;7.40;99.90
24412;DHT22;12544;46.760;15.942;2023-04-08T08:02:50;7.40;99.90
24412;DHT22;12544;46.760;15.942;2023-04-08T08:05:15;7.50;99.90
24412;DHT22;12544;46.760;15.942;2023-04-08T08:07:41;7.50;99.90
24412;DHT22;12544;46.760;15.942;2023-04-08T08:10:07;7.50;99.90
24412;DHT22;12544;46.760;15.942;2023-04-08T08:12:36;7.50;99.90
24412;DHT22;12544;46.760;15.942;2023-04-08T08:15:02;7.50;99.90
24412;DHT22;12544;46.760;15.942;2023-04-08T08:17:27;7.40;99.90
24412;DHT22;12544;46.760;15.942;2023-04-08T08:19:55;7.40;99.90
24412;DHT22;12544;46.760;15.942;2023-04-08T08:22:21;7.50;99.90
24412;DHT22;12544;46.760;15.942;2023-04-08T08:24:47;7.50;99.90
24412;DHT22;12544;46.760;15.942;2023-04-08T08:27:12;7.50;99.90
24412;DHT22;12544;46.760;15.942;2023-04-08T08:29:38;7.50;99.90
24412;DHT22;12544;46.760;15.942;2023-04-08T08:32:04;7.50;99.90
24412;DHT22;12544;46.760;15.942;2023-04-08T08:34:30;7.50;99.90
24412;DHT22;12544;46.760;15.942;2023-04-08T08:36:56;7.60;99.90
24412;DHT22;12544;46.760;15.942;2023-04-08T08:39:21;7.50;99.90
24412;DHT22;12544;46.760;15.942;2023-04-08T08:41:47;7.50;99.90
24412;DHT22;12544;46.760;15.942;2023-04-08T08:44:12;7.60;99.90
24412;DHT22;12544;46.760;15.942;2023-04-08T08:46:44;7.60;99.90
24412;DHT22;12544;46.760;15.942;2023-04-08T08:49:13;7.50;99.90
24412;DHT22;12544;46.760;15.942;2023-04-08T08:51:39;7.50;99.90
24412;DHT22;12544;46.760;15.942;2023-04-08T08:54:04;7.50;99.90
24412;DHT22;12544;46.760;15.942;2023-04-08T08:56:31;7.40;99.90
24412;DHT22;12544;46.760;15.942;2023-04-08T08:58:57;7.30;99.90
24412;DHT22;12544;46.760;15.942;2023-04-08T09:06:33;7.30;99.90
24412;DHT22;12544;46.760;15.942;2023-04-08T09:08:58;7.30;99.90
24412;DHT22;12544;46.760;15.942;2023-04-08T09:11:24;7.30;99.90
24412;DHT22;12544;46.760;15.942;2023-04-08T09:13:50;7.40;99.90
24412;DHT22;12544;46.760;15.942;2023-04-08T09:16:16;7.40;99.90
24412;DHT22;12544;46.760;15.942;2023-04-08T09:18:43;7.40;99.90
24412;DHT22;12544;46.760;15.942;2023-04-08T09:21:10;7.40;99.90
24412;DHT22;12544;46.760;15.942;2023-04-08T09:26:12;7.30;99.90
24412;DHT22;12544;46.760;15.942;2023-04-08T09:28:38;7.40;99.90
24412;DHT22;12544;46.760;15.942;2023-04-08T09:31:17;7.30;99.90
24412;DHT22;12544;46.760;15.942;2023-04-08T09:33:43;7.30;99.90
24412;DHT22;12544;46.760;15.942;2023-04-08T09:36:09;7.30;99.90
24412;DHT22;12544;46.760;15.942;2023-04-08T09:38:35;7.40;99.90
24412;DHT22;12544;46.760;15.942;2023-04-08T09:41:01;7.30;99.90
24412;DHT22;12544;46.760;15.942;2023-04-08T09:43:28;7.30;99.90
24412;DHT22;12544;46.760;15.942;2023-04-08T09:45:54;7.50;99.90
24412;DHT22;12544;46.760;15.942;2023-04-08T09:48:23;7.50;99.90
24412;DHT22;12544;46.760;15.942;2023-04-08T09:50:51;7.50;99.90
24412;DHT22;12544;46.760;15.942;2023-04-08T09:53:19;7.40;99.90
24412;DHT22;12544;46.760;15.942;2023-04-08T09:55:50;7.40;99.90
24412;DHT22;12544;46.760;15.942;2023-04-08T09:58:21;7.40;99.90
24412;DHT22;12544;46.760;15.942;2023-04-08T10:00:51;7.40;99.90
24412;DHT22;12544;46.760;15.942;2023-04-08T10:06:03;7.40;99.90
24412;DHT22;12544;46.760;15.942;2023-04-08T10:08:29;7.50;99.90
24412;DHT22;12544;46.760;15.942;2023-04-08T10:10:55;7.50;99.90
24412;DHT22;12544;46.760;15.942;2023-04-08T10:13:22;7.50;99.90
24412;DHT22;12544;46.760;15.942;2023-04-08T10:15:47;7.60;99.90
24412;DHT22;12544;46.760;15.942;2023-04-08T10:23:04;7.70;99.90
24412;DHT22;12544;46.760;15.942;2023-04-08T10:25:38;7.80;99.90
24412;DHT22;12544;46.760;15.942;2023-04-08T10:28:26;7.80;99.90
24412;DHT22;12544;46.760;15.942;2023-04-08T10:30:52;7.80;99.90
24412;DHT22;12544;46.760;15.942;2023-04-08T10:33:20;7.80;99.90
24412;DHT22;12544;46.760;15.942;2023-04-08T10:35:53;7.90;99.90
24412;DHT22;12544;46.760;15.942;2023-04-08T10:38:19;7.90;99.90
24412;DHT22;12544;46.760;15.942;2023-04-08T10:40:46;7.90;99.90
24412;DHT22;12544;46.760;15.942;2023-04-08T10:43:12;7.90;99.90
24412;DHT22;12544;46.760;15.942;2023-04-08T10:45:38;7.90;99.90
24412;DHT22;12544;46.760;15.942;2023-04-08T10:48:20;7.90;99.90
24412;DHT22;12544;46.760;15.942;2023-04-08T10:51:00;7.90;99.90
24412;DHT22;12544;46.760;15.942;2023-04-08T10:53:26;7.90;99.90
24412;DHT22;12544;46.760;15.942;2023-04-08T10:55:52;7.90;99.90
24412;DHT22;12544;46.760;15.942;2023-04-08T10:58:18;7.80;99.90
24412;DHT22;12544;46.760;15.942;2023-04-08T11:00:43;7.80;99.90
24412;DHT22;12544;46.760;15.942;2023-04-08T11:03:09;7.80;99.90
24412;DHT22;12544;46.760;15.942;2023-04-08T11:05:36;7.80;99.90
24412;DHT22;12544;46.760;15.942;2023-04-08T11:08:02;7.80;99.90
24412;DHT22;12544;46.760;15.942;2023-04-08T11:10:28;7.90;99.90
24412;DHT22;12544;46.760;15.942;2023-04-08T11:12:54;7.90;99.90
24412;DHT22;12544;46.760;15.942;2023-04-08T11:15:20;7.90;99.90
24412;DHT22;12544;46.760;15.942;2023-04-08T11:17:46;7.90;99.90
24412;DHT22;12544;46.760;15.942;2023-04-08T11:20:13;7.80;99.90
24412;DHT22;12544;46.760;15.942;2023-04-08T11:22:39;7.70;99.90
24412;DHT22;12544;46.760;15.942;2023-04-08T11:25:06;7.60;99.90
24412;DHT22;12544;46.760;15.942;2023-04-08T11:27:33;7.60;99.90
24412;DHT22;12544;46.760;15.942;2023-04-08T11:30:00;7.70;99.90
24412;DHT22;12544;46.760;15.942;2023-04-08T11:32:26;7.80;99.90
24412;DHT22;12544;46.760;15.942;2023-04-08T11:34:53;7.80;99.90
24412;DHT22;12544;46.760;15.942;2023-04-08T11:37:18;7.90;99.90
24412;DHT22;12544;46.760;15.942;2023-04-08T11:39:44;7.90;99.90
24412;DHT22;12544;46.760;15.942;2023-04-08T11:44:55;8.00;99.90
24412;DHT22;12544;46.760;15.942;2023-04-08T11:47:20;8.00;99.90
24412;DHT22;12544;46.760;15.942;2023-04-08T11:49:46;8.10;99.90
24412;DHT22;12544;46.760;15.942;2023-04-08T11:52:12;8.00;99.90
24412;DHT22;12544;46.760;15.942;2023-04-08T11:54:41;8.10;99.90
24412;DHT22;12544;46.760;15.942;2023-04-08T11:57:07;8.10;99.90
24412;DHT22;12544;46.760;15.942;2023-04-08T11:59:34;8.20;99.90
24412;DHT22;12544;46.760;15.942;2023-04-08T12:02:00;8.30;99.90
24412;DHT22;12544;46.760;15.942;2023-04-08T12:04:26;8.40;99.90
24412;DHT22;12544;46.760;15.942;2023-04-08T12:06:52;8.30;99.90
24412;DHT22;12544;46.760;15.942;2023-04-08T12:09:17;8.30;99.90
24412;DHT22;12544;46.760;15.942;2023-04-08T12:11:43;8.30;99.90
24412;DHT22;12544;46.760;15.942;2023-04-08T12:14:08;8.30;99.90
24412;DHT22;12544;46.760;15.942;2023-04-08T12:16:34;8.30;99.90
24412;DHT22;12544;46.760;15.942;2023-04-08T12:19:00;8.20;99.90
24412;DHT22;12544;46.760;15.942;2023-04-08T12:21:25;8.10;99.90
24412;DHT22;12544;46.760;15.942;2023-04-08T12:23:52;8.10;99.90
24412;DHT22;12544;46.760;15.942;2023-04-08T12:26:18;8.10;99.90
24412;DHT22;12544;46.760;15.942;2023-04-08T12:28:44;8.10;99.90
24412;DHT22;12544;46.760;15.942;2023-04-08T12:31:10;8.10;99.90
24412;DHT22;12544;46.760;15.942;2023-04-08T12:33:35;8.20;99.90
24412;DHT22;12544;46.760;15.942;2023-04-08T12:36:01;8.20;99.90
24412;DHT22;12544;46.760;15.942;2023-04-08T12:38:27;8.30;99.90
24412;DHT22;12544;46.760;15.942;2023-04-08T12:40:52;8.40;99.90
24412;DHT22;12544;46.760;15.942;2023-04-08T12:43:18;8.40;99.90
24412;DHT22;12544;46.760;15.942;2023-04-08T12:45:43;8.40;99.90
24412;DHT22;12544;46.760;15.942;2023-04-08T12:48:09;8.50;99.90
24412;DHT22;12544;46.760;15.942;2023-04-08T12:50:35;8.60;99.90
24412;DHT22;12544;46.760;15.942;2023-04-08T12:53:01;8.60;99.90
24412;DHT22;12544;46.760;15.942;2023-04-08T12:55:26;8.70;99.90
24412;DHT22;12544;46.760;15.942;2023-04-08T12:57:52;8.80;99.90
24412;DHT22;12544;46.760;15.942;2023-04-08T13:00:17;8.90;99.90
24412;DHT22;12544;46.760;15.942;2023-04-08T13:02:44;8.80;99.90
24412;DHT22;12544;46.760;15.942;2023-04-08T13:05:18;8.80;99.90
24412;DHT22;12544;46.760;15.942;2023-04-08T13:07:44;8.90;99.90
24412;DHT22;12544;46.760;15.942;2023-04-08T13:10:10;8.90;99.90
24412;DHT22;12544;46.760;15.942;2023-04-08T13:12:35;8.90;99.90
24412;DHT22;12544;46.760;15.942;2023-04-08T13:15:04;8.70;99.90
24412;DHT22;12544;46.760;15.942;2023-04-08T13:17:30;8.50;99.90
24412;DHT22;12544;46.760;15.942;2023-04-08T13:19:56;8.50;99.90
24412;DHT22;12544;46.760;15.942;2023-04-08T13:22:21;8.40;99.90
24412;DHT22;12544;46.760;15.942;2023-04-08T13:24:51;8.20;99.90
24412;DHT22;12544;46.760;15.942;2023-04-08T13:27:16;7.90;99.90
24412;DHT22;12544;46.760;15.942;2023-04-08T13:29:42;7.70;99.90
24412;DHT22;12544;46.760;15.942;2023-04-08T13:32:07;7.60;99.90
24412;DHT22;12544;46.760;15.942;2023-04-08T13:34:33;7.60;99.90
24412;DHT22;12544;46.760;15.942;2023-04-08T13:36:59;7.50;99.90
24412;DHT22;12544;46.760;15.942;2023-04-08T13:39:24;7.50;99.90
24412;DHT22;12544;46.760;15.942;2023-04-08T13:41:50;7.50;99.90
24412;DHT22;12544;46.760;15.942;2023-04-08T13:44:16;7.40;99.90
24412;DHT22;12544;46.760;15.942;2023-04-08T13:46:42;7.40;99.90
24412;DHT22;12544;46.760;15.942;2023-04-08T13:49:07;7.30;99.90
24412;DHT22;12544;46.760;15.942;2023-04-08T13:51:33;7.30;99.90
24412;DHT22;12544;46.760;15.942;2023-04-08T13:53:59;7.30;99.90
24412;DHT22;12544;46.760;15.942;2023-04-08T13:56:25;7.40;99.90
24412;DHT22;12544;46.760;15.942;2023-04-08T13:58:51;7.40;99.90
24412;DHT22;12544;46.760;15.942;2023-04-08T14:01:16;7.30;99.90
24412;DHT22;12544;46.760;15.942;2023-04-08T14:03:41;7.30;99.90
24412;DHT22;12544;46.760;15.942;2023-04-08T14:06:13;7.30;99.90
24412;DHT22;12544;46.760;15.942;2023-04-08T14:08:38;7.30;99.90
24412;DHT22;12544;46.760;15.942;2023-04-08T14:11:04;7.20;99.90
24412;DHT22;12544;46.760;15.942;2023-04-08T14:13:29;7.20;99.90
24412;DHT22;12544;46.760;15.942;2023-04-08T14:15:56;7.10;99.90
24412;DHT22;12544;46.760;15.942;2023-04-08T14:18:25;7.20;99.90
24412;DHT22;12544;46.760;15.942;2023-04-08T14:20:51;7.20;99.90
24412;DHT22;12544;46.760;15.942;2023-04-08T14:23:17;7.20;99.90
24412;DHT22;12544;46.760;15.942;2023-04-08T14:25:48;7.10;99.90
24412;DHT22;12544;46.760;15.942;2023-04-08T14:28:14;7.10;99.90
24412;DHT22;12544;46.760;15.942;2023-04-08T14:30:40;7.10;99.90
24412;DHT22;12544;46.760;15.942;2023-04-08T14:33:05;7.00;99.90
24412;DHT22;12544;46.760;15.942;2023-04-08T14:35:31;7.10;99.90
24412;DHT22;12544;46.760;15.942;2023-04-08T14:37:56;7.10;99.90
24412;DHT22;12544;46.760;15.942;2023-04-08T14:40:22;7.10;99.90
24412;DHT22;12544;46.760;15.942;2023-04-08T14:42:48;7.10;99.90
24412;DHT22;12544;46.760;15.942;2023-04-08T14:45:16;7.30;99.90
24412;DHT22;12544;46.760;15.942;2023-04-08T14:47:42;7.30;99.90
24412;DHT22;12544;46.760;15.942;2023-04-08T14:50:08;7.40;99.90
24412;DHT22;12544;46.760;15.942;2023-04-08T14:52:33;7.30;99.90
24412;DHT22;12544;46.760;15.942;2023-04-08T14:54:59;7.40;99.90
24412;DHT22;12544;46.760;15.942;2023-04-08T14:57:24;7.40;99.90
24412;DHT22;12544;46.760;15.942;2023-04-08T14:59:50;7.40;99.90
24412;DHT22;12544;46.760;15.942;2023-04-08T15:02:16;7.30;99.90
24412;DHT22;12544;46.760;15.942;2023-04-08T15:04:42;7.40;99.90
24412;DHT22;12544;46.760;15.942;2023-04-08T15:07:07;7.40;99.90
24412;DHT22;12544;46.760;15.942;2023-04-08T15:09:33;7.40;99.90
24412;DHT22;12544;46.760;15.942;2023-04-08T15:11:58;7.20;99.90
24412;DHT22;12544;46.760;15.942;2023-04-08T15:14:24;7.20;99.90
24412;DHT22;12544;46.760;15.942;2023-04-08T15:16:50;7.20;99.90
24412;DHT22;12544;46.760;15.942;2023-04-08T15:19:15;7.10;99.90
24412;DHT22;12544;46.760;15.942;2023-04-08T15:21:44;7.20;99.90
24412;DHT22;12544;46.760;15.942;2023-04-08T15:24:09;7.10;99.90
24412;DHT22;12544;46.760;15.942;2023-04-08T15:26:35;7.10;99.90
24412;DHT22;12544;46.760;15.942;2023-04-08T15:29:00;7.00;99.90
24412;DHT22;12544;46.760;15.942;2023-04-08T15:31:28;7.00;99.90
24412;DHT22;12544;46.760;15.942;2023-04-08T15:33:54;6.90;99.90
24412;DHT22;12544;46.760;15.942;2023-04-08T15:36:20;6.90;99.90
24412;DHT22;12544;46.760;15.942;2023-04-08T15:38:46;6.90;99.90
24412;DHT22;12544;46.760;15.942;2023-04-08T15:41:18;6.90;99.90
24412;DHT22;12544;46.760;15.942;2023-04-08T15:43:44;6.80;99.90
24412;DHT22;12544;46.760;15.942;2023-04-08T15:46:10;6.80;99.90
24412;DHT22;12544;46.760;15.942;2023-04-08T15:48:40;6.90;99.90
24412;DHT22;12544;46.760;15.942;2023-04-08T15:51:06;7.00;99.90
24412;DHT22;12544;46.760;15.942;2023-04-08T15:53:32;7.00;99.90